Time;durP1;ratioP1;P1;durP2;ratioP2;P2;SDS_P1;SDS_P2;PMS_P1;PMS_P2;Temp;Humidity;BMP_temperature;BMP_pressure;BME280_temperature;BME280_humidity;BME280_pressure;Samples;Min_cycle;Max_cycle;Signal;HPM_P1;HPM_P2
2022/12/09 00:00:03;;;;;;;3.47;1.83;;;;;;;15.91;59.50;96088.75;5095840;28;20107;-34
2022/12/09 00:02:28;;;;;;;2.85;1.50;;;;;;;16.01;59.17;96077.25;5095564;28;20119;-33
2022/12/09 00:04:54;;;;;;;4.20;1.98;;;;;;;16.13;58.62;96070.75;5095796;28;20119;-34
2022/12/09 00:07:19;;;;;;;6.32;1.60;;;;;;;16.01;58.96;96076.50;5095683;28;20490;-35
2022/12/09 00:09:45;;;;;;;3.55;1.65;;;;;;;15.95;59.31;96070.94;5095737;28;20077;-34
2022/12/09 00:12:10;;;;;;;3.20;1.48;;;;;;;16.09;58.82;96051.03;5095846;28;20430;-35
2022/12/09 00:14:36;;;;;;;4.93;1.90;;;;;;;16.08;58.95;96065.94;5095286;28;20453;-34
2022/12/09 00:17:01;;;;;;;6.00;1.73;;;;;;;16.08;59.11;96062.44;5095808;28;20024;-34
2022/12/09 00:19:27;;;;;;;6.95;1.75;;;;;;;16.02;59.31;96048.69;5095658;28;20028;-34
2022/12/09 00:21:52;;;;;;;3.78;1.55;;;;;;;16.13;59.31;96059.81;5095344;28;20016;-34
2022/12/09 00:24:18;;;;;;;3.28;1.27;;;;;;;16.19;58.69;96059.16;5095584;28;20050;-34
2022/12/09 00:26:43;;;;;;;3.30;1.60;;;;;;;16.16;59.05;96055.41;5095266;28;20035;-34
2022/12/09 00:29:10;;;;;;;3.03;1.42;;;;;;;16.24;58.90;96061.22;5107881;28;20026;-35
2022/12/09 00:31:37;;;;;;;4.18;1.80;;;;;;;16.14;59.32;96052.38;5115550;28;20031;-35
2022/12/09 00:34:06;;;;;;;4.72;1.40;;;;;;;16.38;58.55;96055.75;5115670;28;20506;-34
2022/12/09 00:36:32;;;;;;;2.55;1.33;;;;;;;16.33;58.62;96052.91;5115623;28;20035;-34
2022/12/09 00:38:58;;;;;;;4.70;1.90;;;;;;;16.35;58.61;96050.47;5115553;28;20024;-34
2022/12/09 00:41:24;;;;;;;3.33;1.65;;;;;;;16.39;58.53;96037.34;5115550;28;20020;-35
2022/12/09 00:43:50;;;;;;;2.40;1.50;;;;;;;16.37;58.74;96037.81;5115485;28;20027;-34
2022/12/09 00:46:16;;;;;;;2.83;1.35;;;;;;;16.41;58.42;96035.66;5115380;27;20031;-36
2022/12/09 00:48:42;;;;;;;3.78;1.63;;;;;;;16.52;58.14;96052.25;5115383;28;20073;-33
2022/12/09 00:51:17;;;;;;;3.90;1.40;;;;;;;16.42;58.50;96036.41;5115022;28;20023;-34
2022/12/09 00:53:43;;;;;;;3.05;1.58;;;;;;;16.27;59.16;96055.56;5115459;28;20023;-34
2022/12/09 00:56:09;;;;;;;3.55;1.48;;;;;;;16.48;58.62;96048.19;5115217;28;20361;-33
2022/12/09 00:58:34;;;;;;;2.67;1.85;;;;;;;16.39;58.74;96056.50;5115104;28;20032;-34
2022/12/09 01:01:00;;;;;;;3.92;1.45;;;;;;;16.44;58.56;96061.34;5115321;28;20031;-34
2022/12/09 01:03:26;;;;;;;3.20;1.80;;;;;;;16.41;58.82;96059.53;5114741;28;20047;-35
2022/12/09 01:05:51;;;;;;;2.25;1.50;;;;;;;16.43;58.67;96055.09;5115313;28;20024;-34
2022/12/09 01:08:17;;;;;;;3.40;1.50;;;;;;;16.36;58.97;96055.47;5114875;28;20027;-34
2022/12/09 01:10:44;;;;;;;4.30;1.65;;;;;;;16.42;58.96;96055.56;5114879;28;20019;-34
2022/12/09 01:13:13;;;;;;;4.03;1.48;;;;;;;16.31;59.22;96047.94;5114765;28;20023;-35
2022/12/09 01:15:38;;;;;;;4.35;1.70;;;;;;;16.37;59.08;96042.53;5114755;28;20098;-34
2022/12/09 01:18:05;;;;;;;3.47;1.45;;;;;;;16.40;59.31;96036.13;5114792;28;20076;-34
2022/12/09 01:20:32;;;;;;;3.67;1.50;;;;;;;16.33;59.43;96039.22;5114810;28;20019;-34
2022/12/09 01:22:57;;;;;;;4.68;1.65;;;;;;;16.34;59.49;96046.22;5114506;28;20032;-34
2022/12/09 01:25:23;;;;;;;2.30;1.80;;;;;;;16.27;59.92;96039.16;5114550;28;20035;-34
2022/12/09 01:27:48;;;;;;;3.40;1.65;;;;;;;16.22;59.99;96041.78;5111590;28;20023;-33
2022/12/09 01:30:14;;;;;;;3.35;1.70;;;;;;;16.34;59.41;96038.75;5114469;28;20019;-34
2022/12/09 01:32:40;;;;;;;3.55;1.65;;;;;;;16.30;59.62;96032.75;5114845;28;20503;-35
2022/12/09 01:35:06;;;;;;;2.50;1.70;;;;;;;16.38;59.54;96027.63;5114304;28;20096;-34
2022/12/09 01:37:33;;;;;;;3.65;2.08;;;;;;;16.35;59.85;96012.16;5114612;28;20148;-34
2022/12/09 01:39:59;;;;;;;3.45;1.90;;;;;;;16.24;60.19;96025.66;5114353;28;20059;-33
2022/12/09 01:42:26;;;;;;;3.47;1.55;;;;;;;16.27;60.29;96014.53;5112962;28;20119;-34
2022/12/09 01:45:19;;;;;;;5.78;2.05;;;;;;;16.30;60.25;96002.66;5113973;28;20027;-34
2022/12/09 01:47:50;;;;;;;4.35;2.05;;;;;;;16.29;60.41;96008.59;5114508;28;20020;-34
2022/12/09 01:50:16;;;;;;;3.13;1.80;;;;;;;16.36;60.13;95997.25;5114351;28;20023;-34
2022/12/09 01:52:43;;;;;;;2.47;1.60;;;;;;;16.33;60.29;95981.75;5114093;28;20473;-36
2022/12/09 01:55:09;;;;;;;3.55;1.50;;;;;;;16.22;60.86;95981.59;5114072;28;20032;-34
2022/12/09 01:57:35;;;;;;;7.03;2.00;;;;;;;16.30;60.41;95977.25;5114025;28;20073;-34
2022/12/09 02:00:01;;;;;;;4.20;2.03;;;;;;;16.07;61.67;95970.69;5114069;28;20537;-34
2022/12/09 02:02:29;;;;;;;4.35;1.63;;;;;;;16.16;61.32;95963.13;5114134;28;20150;-33
2022/12/09 02:04:55;;;;;;;4.82;1.90;;;;;;;16.12;61.55;95968.03;5113611;28;20103;-34
2022/12/09 02:07:21;;;;;;;5.22;2.17;;;;;;;16.01;62.22;95970.59;5113899;28;20031;-34
2022/12/09 02:09:51;;;;;;;5.38;1.92;;;;;;;16.10;62.02;95965.00;5113920;28;20016;-33
2022/12/09 02:12:35;;;;;;;6.70;2.35;;;;;;;16.11;62.45;95961.06;5114222;28;20102;-34
2022/12/09 02:15:11;;;;;;;6.47;2.17;;;;;;;15.87;63.34;95965.88;5114012;28;20024;-33
2022/12/09 02:17:40;;;;;;;5.18;2.60;;;;;;;15.91;63.44;95963.72;5114023;28;20042;-34
2022/12/09 02:20:22;;;;;;;7.63;2.28;;;;;;;15.98;63.06;95957.09;5113645;28;20077;-35
2022/12/09 02:23:05;;;;;;;5.43;2.55;;;;;;;16.08;63.06;95950.28;5113751;28;20076;-34
2022/12/09 02:25:45;;;;;;;;;;;;;;;16.01;63.38;95951.44;5114178;28;20118;-34
2022/12/09 02:28:41;;;;;;;6.45;2.13;;;;;;;16.08;63.08;95948.31;5113738;28;19911;-33
2022/12/09 02:31:19;;;;;;;7.05;1.90;;;;;;;16.22;62.54;95952.25;5113198;28;20152;-34
2022/12/09 02:34:18;;;;;;;9.23;3.28;;;;;;;16.23;62.53;95967.44;5113575;28;20027;-34
2022/12/09 02:37:09;;;;;;;6.15;1.98;;;;;;;16.31;61.96;95954.91;5113747;28;20020;-34
2022/12/09 02:39:50;;;;;;;6.10;2.20;;;;;;;16.20;62.04;95957.44;5113596;28;20031;-34
2022/12/09 02:42:20;;;;;;;7.47;2.50;;;;;;;16.28;61.94;95949.63;5112387;28;20028;-34
2022/12/09 02:44:49;;;;;;;6.25;2.22;;;;;;;16.38;61.65;95938.06;5113883;28;20020;-34
2022/12/09 02:47:20;;;;;;;9.00;2.85;;;;;;;16.24;62.12;95938.09;5113795;28;20016;-34
2022/12/09 02:49:59;;;;;;;8.38;2.70;;;;;;;16.46;61.46;95941.16;5113759;28;20479;-34
2022/12/09 02:52:27;;;;;;;6.60;2.38;;;;;;;16.46;61.26;95930.97;5113724;28;20023;-33
2022/12/09 02:54:54;;;;;;;8.70;2.63;;;;;;;16.34;61.99;95928.53;5113654;28;20153;-34
2022/12/09 02:57:23;;;;;;;9.48;2.95;;;;;;;16.41;61.66;95928.91;5113443;28;20022;-34
2022/12/09 02:59:49;;;;;;;5.50;2.35;;;;;;;16.41;61.69;95933.63;5113499;28;20022;-35
2022/12/09 03:02:24;;;;;;;9.75;2.40;;;;;;;16.13;63.03;95928.50;5113313;28;20044;-34
2022/12/09 03:05:09;;;;;;;8.63;2.88;;;;;;;16.10;63.08;95929.44;5113445;28;20019;-34
2022/12/09 03:08:02;;;;;;;11.77;2.13;;;;;;;16.27;62.57;95928.97;5113430;28;20028;-34
2022/12/09 03:10:40;;;;;;;9.52;2.75;;;;;;;16.32;62.12;95926.28;5113304;28;20031;-35
2022/12/09 03:13:16;;;;;;;11.65;2.67;;;;;;;16.08;63.43;95926.44;5113620;28;20028;-34
2022/12/09 03:15:48;;;;;;;10.32;2.47;;;;;;;16.17;63.12;95923.59;5113556;28;20065;-34
2022/12/09 03:18:18;;;;;;;9.38;2.63;;;;;;;16.34;62.49;95934.03;5113337;28;20011;-33
2022/12/09 03:20:44;;;;;;;15.45;3.38;;;;;;;16.01;64.19;95937.03;5113483;28;20023;-35
2022/12/09 03:23:13;;;;;;;13.57;3.22;;;;;;;16.02;64.05;95935.78;5113177;28;20490;-33
2022/12/09 03:25:46;;;;;;;14.00;3.05;;;;;;;16.01;64.13;95926.84;5113254;28;20102;-34
2022/12/09 03:28:27;;;;;;;13.90;3.10;;;;;;;15.84;65.03;95925.81;5113285;28;20034;-34
2022/12/09 03:30:55;;;;;;;16.52;2.67;;;;;;;16.03;64.30;95935.31;5113276;28;20070;-34
2022/12/09 03:33:23;;;;;;;11.00;2.50;;;;;;;16.10;64.15;95928.69;5108734;28;20028;-35
2022/12/09 03:35:52;;;;;;;17.50;4.15;;;;;;;16.05;64.24;95927.41;5096635;28;20024;-34
2022/12/09 03:38:20;;;;;;;18.52;4.18;;;;;;;16.16;63.81;95930.31;5096641;28;20365;-36
2022/12/09 03:41:02;;;;;;;18.02;4.32;;;;;;;15.80;65.16;95952.59;5096355;28;20388;-34
2022/12/09 03:43:33;;;;;;;11.60;3.80;;;;;;;15.79;65.36;95934.69;5096327;28;20077;-34
2022/12/09 03:45:59;;;;;;;16.02;3.65;;;;;;;15.78;65.52;95917.53;5096191;28;20024;-34
2022/12/09 03:48:25;;;;;;;17.60;4.97;;;;;;;15.82;65.60;95922.06;5096162;28;20066;-34
2022/12/09 03:51:07;;;;;;;17.65;3.50;;;;;;;15.94;64.83;95908.09;5095770;28;20060;-34
2022/12/09 03:53:43;;;;;;;16.77;3.88;;;;;;;15.95;64.90;95912.31;5095886;28;20081;-34
2022/12/09 03:56:20;;;;;;;15.05;3.40;;;;;;;16.08;64.20;95920.97;5096056;28;20028;-33
2022/12/09 03:58:49;;;;;;;24.63;6.95;;;;;;;15.96;64.95;95905.59;5095923;28;20020;-34
2022/12/09 04:01:15;;;;;;;17.35;4.18;;;;;;;15.96;65.02;95910.31;5096184;28;20020;-34
2022/12/09 04:03:44;;;;;;;16.67;4.50;;;;;;;15.88;65.17;95915.44;5095636;28;20055;-34
2022/12/09 04:06:09;;;;;;;20.08;3.30;;;;;;;16.06;64.64;95917.22;5096096;28;20020;-35
2022/12/09 04:08:36;;;;;;;21.65;5.38;;;;;;;15.68;66.10;95897.00;5095320;28;20031;-35
2022/12/09 04:11:01;;;;;;;22.40;3.67;;;;;;;15.92;65.15;95904.31;5095767;28;20107;-34
2022/12/09 04:13:27;;;;;;;18.67;3.90;;;;;;;16.01;64.94;95907.69;5094396;28;20030;-34
2022/12/09 04:15:52;;;;;;;23.45;4.45;;;;;;;16.06;64.55;95898.81;5095739;28;20052;-34
2022/12/09 04:18:18;;;;;;;26.48;4.70;;;;;;;16.09;64.58;95897.84;5095555;28;20024;-34
2022/12/09 04:20:43;;;;;;;24.48;4.03;;;;;;;16.24;63.53;95895.09;5095567;28;20024;-34
2022/12/09 04:23:09;;;;;;;17.88;4.60;;;;;;;16.23;63.74;95901.78;5095491;28;20016;-34
2022/12/09 04:25:36;;;;;;;19.45;4.22;;;;;;;16.06;64.46;95893.34;5095727;28;20020;-34
2022/12/09 04:28:02;;;;;;;22.95;3.67;;;;;;;15.96;64.86;95889.19;5095389;28;20156;-35
2022/12/09 04:30:27;;;;;;;20.67;4.68;;;;;;;15.74;65.93;95875.19;5095355;28;20023;-34
2022/12/09 04:32:54;;;;;;;30.30;4.20;;;;;;;15.80;66.18;95884.25;5095072;28;20380;-34
2022/12/09 04:35:19;;;;;;;22.58;4.03;;;;;;;15.53;67.01;95862.66;5095466;28;20043;-33
2022/12/09 04:37:45;;;;;;;21.75;4.10;;;;;;;15.78;66.13;95859.34;5095202;28;20024;-34
2022/12/09 04:40:11;;;;;;;18.05;4.00;;;;;;;15.92;65.50;95858.56;5103623;28;20463;-34
2022/12/09 04:42:37;;;;;;;23.35;4.53;;;;;;;15.94;65.76;95858.09;5115480;28;20035;-35
2022/12/09 04:45:03;;;;;;;24.60;4.75;;;;;;;15.73;66.49;95854.53;5114979;28;20016;-34
2022/12/09 04:47:29;;;;;;;23.00;3.85;;;;;;;15.88;65.77;95841.59;5115014;28;20027;-34
2022/12/09 04:49:57;;;;;;;22.70;4.40;;;;;;;15.96;65.50;95850.16;5115296;28;20019;-34
2022/12/09 04:52:22;;;;;;;20.42;4.00;;;;;;;15.99;65.35;95843.75;5115754;28;20155;-34
2022/12/09 04:54:49;;;;;;;20.85;4.10;;;;;;;15.79;65.97;95836.25;5115456;28;20470;-34
2022/12/09 04:57:15;;;;;;;15.88;4.88;;;;;;;15.89;65.56;95832.19;5115331;28;20028;-34
2022/12/09 04:59:40;;;;;;;22.40;4.60;;;;;;;16.02;65.34;95835.34;5115294;28;20069;-36
2022/12/09 05:02:06;;;;;;;18.05;4.53;;;;;;;15.93;65.59;95830.00;5114284;28;20053;-33
2022/12/09 05:04:31;;;;;;;22.00;4.07;;;;;;;15.97;65.61;95822.34;5114993;28;20088;-35
2022/12/09 05:06:56;;;;;;;18.38;5.30;;;;;;;16.07;64.97;95815.50;5114870;28;20406;-34
2022/12/09 05:09:22;;;;;;;15.98;5.45;;;;;;;16.12;64.91;95823.06;5114914;28;20028;-34
2022/12/09 05:11:47;;;;;;;20.65;4.13;;;;;;;16.09;64.90;95815.78;5114850;28;20020;-34
2022/12/09 05:14:13;;;;;;;25.00;4.40;;;;;;;15.82;66.03;95814.16;5114840;28;20043;-34
2022/12/09 05:16:39;;;;;;;19.15;4.32;;;;;;;15.94;65.50;95817.84;5113907;28;20047;-34
2022/12/09 05:19:04;;;;;;;17.52;4.28;;;;;;;15.96;65.44;95807.16;5115115;28;20380;-34
2022/12/09 05:21:30;;;;;;;21.45;4.93;;;;;;;16.04;65.00;95813.75;5114895;28;20024;-34
2022/12/09 05:23:56;;;;;;;15.63;4.00;;;;;;;15.97;65.42;95811.41;5114462;28;20034;-35
2022/12/09 05:26:22;;;;;;;18.17;3.50;;;;;;;15.62;66.39;95799.72;5114797;28;20035;-34
2022/12/09 05:28:49;;;;;;;22.88;4.05;;;;;;;15.70;66.59;95792.63;5114565;28;20072;-34
2022/12/09 05:31:18;;;;;;;17.27;3.80;;;;;;;15.80;66.05;95777.63;5114537;28;20394;-34
2022/12/09 05:33:45;;;;;;;21.65;3.70;;;;;;;15.75;66.20;95783.75;5114557;28;20015;-34
2022/12/09 05:36:13;;;;;;;21.40;4.32;;;;;;;15.89;65.71;95766.56;5111254;28;20016;-35
2022/12/09 05:38:39;;;;;;;15.93;3.15;;;;;;;15.87;65.83;95773.72;5094068;28;20026;-35
2022/12/09 05:41:05;;;;;;;23.33;4.30;;;;;;;15.37;67.95;95774.47;5093923;28;20023;-34
2022/12/09 05:43:31;;;;;;;19.17;3.33;;;;;;;15.77;66.32;95801.19;5094251;28;20483;-34
2022/12/09 05:45:58;;;;;;;21.77;3.75;;;;;;;16.06;65.00;95783.94;5093991;28;20027;-34
2022/12/09 05:48:24;;;;;;;21.30;4.03;;;;;;;16.14;64.50;95787.78;5094017;28;20032;-34
2022/12/09 05:51:00;;;;;;;22.05;4.07;;;;;;;15.91;65.58;95798.91;5093914;28;20032;-33
2022/12/09 05:53:27;;;;;;;20.77;3.78;;;;;;;15.97;65.41;95807.91;5093758;28;20380;-35
2022/12/09 05:55:52;;;;;;;20.65;3.70;;;;;;;15.92;65.71;95828.50;5093110;28;20070;-34
2022/12/09 05:58:19;;;;;;;21.75;4.38;;;;;;;16.04;65.05;95832.91;5093290;28;20482;-34
2022/12/09 06:00:45;;;;;;;14.27;3.10;;;;;;;16.10;64.62;95811.81;5093713;28;20054;-34
2022/12/09 06:03:11;;;;;;;17.85;3.60;;;;;;;16.04;64.74;95791.88;5093437;28;20043;-34
2022/12/09 06:05:37;;;;;;;16.23;3.45;;;;;;;15.92;65.65;95805.88;5093813;28;20032;-34
2022/12/09 06:08:03;;;;;;;20.60;3.90;;;;;;;15.91;65.35;95821.53;5093699;28;20149;-34
2022/12/09 06:10:29;;;;;;;17.08;3.90;;;;;;;16.17;64.54;95818.91;5093659;28;20039;-34
2022/12/09 06:12:56;;;;;;;20.88;4.13;;;;;;;16.05;65.21;95809.78;5093722;28;20020;-34
2022/12/09 06:15:23;;;;;;;18.02;3.80;;;;;;;16.18;64.60;95814.94;5092281;28;20027;-33
2022/12/09 06:17:48;;;;;;;17.55;3.83;;;;;;;16.12;64.70;95808.63;5093476;28;20039;-34
2022/12/09 06:20:14;;;;;;;15.15;4.85;;;;;;;16.11;64.66;95798.91;5093617;28;20118;-34
2022/12/09 06:22:39;;;;;;;24.63;4.22;;;;;;;16.03;64.84;95801.31;5093427;28;20101;-33
2022/12/09 06:25:05;;;;;;;21.80;4.45;;;;;;;16.11;64.82;95799.66;5093469;28;20046;-33
2022/12/09 06:27:31;;;;;;;15.45;3.63;;;;;;;16.22;64.35;95796.31;5093311;28;20043;-34
2022/12/09 06:29:56;;;;;;;17.77;4.78;;;;;;;16.12;64.72;95803.16;5093424;28;20127;-33
2022/12/09 06:32:22;;;;;;;18.83;3.95;;;;;;;16.06;64.78;95797.63;5092044;28;20044;-34
2022/12/09 06:34:47;;;;;;;15.07;3.55;;;;;;;16.05;64.87;95792.63;5093340;28;20444;-34
2022/12/09 06:37:16;;;;;;;17.50;3.95;;;;;;;16.28;64.13;95772.53;5097338;28;20018;-34
2022/12/09 06:39:42;;;;;;;19.15;3.50;;;;;;;16.09;64.67;95772.03;5112563;28;20030;-33
2022/12/09 06:42:07;;;;;;;15.02;4.32;;;;;;;16.20;64.21;95776.13;5113654;28;20024;-34
2022/12/09 06:44:33;;;;;;;11.80;3.08;;;;;;;16.24;63.96;95776.69;5113720;28;20026;-35
2022/12/09 06:46:58;;;;;;;14.55;3.35;;;;;;;16.12;64.86;95786.72;5113519;28;20418;-34
2022/12/09 06:49:24;;;;;;;13.35;3.45;;;;;;;16.04;64.71;95791.13;5113812;28;20028;-34
2022/12/09 06:51:50;;;;;;;21.33;4.03;;;;;;;16.24;64.21;95795.84;5113356;28;20031;-34
2022/12/09 06:54:15;;;;;;;12.95;3.30;;;;;;;16.21;64.25;95799.53;5113539;28;20024;-35
2022/12/09 06:56:44;;;;;;;18.15;3.90;;;;;;;16.20;64.31;95803.47;5113410;28;20079;-33
2022/12/09 06:59:10;;;;;;;15.85;3.47;;;;;;;16.22;64.07;95804.53;5113787;28;20032;-34
2022/12/09 07:01:36;;;;;;;19.02;3.67;;;;;;;15.97;64.89;95797.72;5113241;28;20031;-33
2022/12/09 07:04:03;;;;;;;17.80;4.28;;;;;;;16.17;64.21;95781.34;5113431;28;20031;-36
2022/12/09 07:06:31;;;;;;;17.63;3.22;;;;;;;16.04;64.75;95797.34;5114347;28;20024;-34
2022/12/09 07:09:04;;;;;;;14.95;4.40;;;;;;;15.88;65.54;95800.59;5117535;28;20027;-34
2022/12/09 07:11:29;;;;;;;16.23;4.00;;;;;;;15.74;66.04;95791.19;5117299;28;20024;-34
2022/12/09 07:13:55;;;;;;;12.85;3.13;;;;;;;15.87;65.44;95787.38;5117410;28;20034;-34
2022/12/09 07:16:21;;;;;;;14.15;3.95;;;;;;;15.81;66.00;95773.66;5117200;28;20370;-34
2022/12/09 07:18:46;;;;;;;15.73;3.10;;;;;;;15.88;65.73;95784.19;5116925;28;20060;-33
2022/12/09 07:21:14;;;;;;;22.58;4.10;;;;;;;15.65;66.38;95787.84;5116995;28;20027;-34
2022/12/09 07:23:40;;;;;;;11.50;2.88;;;;;;;15.64;66.42;95787.09;5117302;28;20031;-33
2022/12/09 07:26:06;;;;;;;13.88;3.42;;;;;;;15.79;66.07;95787.06;5116933;27;20072;-34
2022/12/09 07:28:33;;;;;;;17.40;3.40;;;;;;;16.01;65.19;95786.59;5116899;28;20031;-34
2022/12/09 07:30:59;;;;;;;11.80;3.10;;;;;;;15.89;65.61;95810.31;5116991;28;20023;-35
2022/12/09 07:33:24;;;;;;;15.57;3.78;;;;;;;15.78;66.06;95797.22;5115774;28;20028;-36
2022/12/09 07:35:54;;;;;;;16.48;3.03;;;;;;;15.82;66.01;95797.75;5116876;28;20364;-36
2022/12/09 07:38:20;;;;;;;26.05;6.25;;;;;;;15.57;67.47;95786.72;5117065;28;20076;-34
2022/12/09 07:40:46;;;;;;;18.50;4.90;;;;;;;15.93;65.84;95794.47;5116793;28;20114;-34
2022/12/09 07:43:11;;;;;;;20.40;6.50;;;;;;;15.59;67.75;95787.75;5116595;28;20031;-35
2022/12/09 07:45:37;;;;;;;31.92;11.98;;;;;;;15.71;67.25;95783.19;5113632;28;20034;-37
2022/12/09 07:48:02;;;;;;;22.48;7.30;;;;;;;15.77;66.63;95794.97;5115952;28;20023;-34
2022/12/09 07:50:28;;;;;;;20.55;6.88;;;;;;;15.62;67.57;95764.19;5116836;28;20019;-34
2022/12/09 07:52:53;;;;;;;25.65;6.55;;;;;;;15.61;67.47;95776.34;5116505;28;20030;-36
2022/12/09 07:55:19;;;;;;;17.90;5.20;;;;;;;15.56;68.35;95766.09;5116354;28;20020;-35
2022/12/09 07:57:44;;;;;;;21.15;6.30;;;;;;;15.86;66.64;95772.22;5116447;28;20015;-35
2022/12/09 08:00:10;;;;;;;23.15;5.88;;;;;;;15.62;67.94;95761.44;5116321;28;20024;-34
2022/12/09 08:02:36;;;;;;;26.30;5.60;;;;;;;15.56;68.51;95760.63;5116152;27;20483;-33
2022/12/09 08:05:01;;;;;;;17.30;6.15;;;;;;;15.69;67.69;95772.00;5116428;27;20028;-34
2022/12/09 08:07:27;;;;;;;19.38;4.80;;;;;;;15.70;67.60;95757.09;5116012;28;20027;-34
2022/12/09 08:09:55;;;;;;;20.45;5.57;;;;;;;15.66;67.62;95768.22;5116132;28;20022;-34
2022/12/09 08:12:21;;;;;;;17.55;4.22;;;;;;;15.66;68.37;95764.75;5116249;27;20102;-35
2022/12/09 08:14:46;;;;;;;21.60;4.30;;;;;;;15.54;68.49;95782.19;5116097;27;20046;-34
2022/12/09 08:17:12;;;;;;;19.42;3.92;;;;;;;15.50;69.19;95789.81;5116024;28;20426;-34
2022/12/09 08:19:37;;;;;;;17.27;4.20;;;;;;;15.48;68.80;95778.59;5115653;28;20028;-33
2022/12/09 08:22:03;;;;;;;23.55;3.78;;;;;;;15.40;70.39;95809.06;5115994;28;20024;-35
2022/12/09 08:24:28;;;;;;;18.33;3.80;;;;;;;15.74;68.12;95776.78;5115794;28;20102;-34
2022/12/09 08:26:54;;;;;;;16.70;4.07;;;;;;;15.67;68.66;95779.91;5115783;27;20027;-35
2022/12/09 08:29:19;;;;;;;20.20;4.47;;;;;;;15.90;67.19;95786.44;5115895;28;20023;-34
2022/12/09 08:31:45;;;;;;;14.52;4.57;;;;;;;15.96;67.04;95801.69;5115020;28;20073;-34
2022/12/09 08:34:10;;;;;;;14.30;3.60;;;;;;;15.99;66.65;95776.13;5115764;28;20483;-34
2022/12/09 08:36:36;;;;;;;13.57;4.03;;;;;;;15.65;69.22;95782.38;5115597;28;20494;-34
2022/12/09 08:39:02;;;;;;;12.80;3.13;;;;;;;15.88;67.51;95783.44;5115687;28;20063;-34
2022/12/09 08:41:33;;;;;;;20.10;4.00;;;;;;;15.86;67.92;95789.38;5115078;28;20027;-35
2022/12/09 08:44:11;;;;;;;15.15;3.95;;;;;;;16.24;66.04;95809.50;5115425;28;20024;-33
2022/12/09 08:46:38;;;;;;;17.58;3.55;;;;;;;16.11;66.60;95821.53;5114865;28;20534;-34
2022/12/09 08:49:04;;;;;;;12.18;3.25;;;;;;;16.07;66.63;95834.66;5115011;28;20030;-34
2022/12/09 08:51:31;;;;;;;17.98;3.80;;;;;;;15.93;67.56;95840.94;5114886;28;20031;-35
2022/12/09 08:53:58;;;;;;;14.77;3.63;;;;;;;15.90;67.72;95820.00;5115353;28;20484;-33
2022/12/09 08:56:24;;;;;;;15.02;3.55;;;;;;;15.92;67.93;95812.09;5115247;28;20031;-34
2022/12/09 08:58:50;;;;;;;16.35;3.55;;;;;;;15.80;68.69;95810.44;5115199;28;20534;-34
2022/12/09 09:01:18;;;;;;;14.60;3.63;;;;;;;15.74;68.88;95790.44;5114986;28;20114;-36
2022/12/09 09:03:45;;;;;;;18.35;3.78;;;;;;;15.94;67.67;95795.22;5115239;28;20050;-34
2022/12/09 09:06:11;;;;;;;14.90;3.40;;;;;;;15.59;71.05;95800.66;5114963;28;20103;-34
2022/12/09 09:08:37;;;;;;;15.38;4.05;;;;;;;16.00;68.20;95806.97;5114906;28;20099;-34
2022/12/09 09:11:09;;;;;;;18.73;4.15;;;;;;;15.78;69.02;95807.41;5113748;28;20027;-33
2022/12/09 09:13:35;;;;;;;16.45;3.92;;;;;;;15.95;68.09;95794.72;5113795;28;20482;-35
2022/12/09 09:16:01;;;;;;;25.50;3.28;;;;;;;15.73;70.58;95789.69;5114777;28;20023;-34
2022/12/09 09:18:26;;;;;;;18.75;3.72;;;;;;;15.55;72.05;95783.72;5114693;28;20026;-34
2022/12/09 09:20:56;;;;;;;15.95;3.60;;;;;;;15.68;70.27;95797.81;5114836;28;20106;-33
2022/12/09 09:23:21;;;;;;;14.50;3.35;;;;;;;15.73;70.64;95783.47;5113473;28;20114;-34
2022/12/09 09:25:47;;;;;;;14.75;3.40;;;;;;;15.59;70.97;95784.25;5114455;28;20452;-34
2022/12/09 09:28:12;;;;;;;15.18;3.33;;;;;;;15.66;70.95;95779.16;5114589;28;20024;-35
2022/12/09 09:30:38;;;;;;;12.27;3.08;;;;;;;15.77;70.05;95793.00;5113908;28;20077;-36
2022/12/09 09:33:04;;;;;;;15.25;3.00;;;;;;;15.71;69.99;95773.00;5113454;28;20079;-34
2022/12/09 09:35:29;;;;;;;14.30;3.13;;;;;;;15.60;71.60;95797.44;5114533;27;20034;-33
2022/12/09 09:37:55;;;;;;;15.68;3.42;;;;;;;15.86;69.74;95807.75;5114254;28;20074;-34
2022/12/09 09:40:21;;;;;;;13.65;3.17;;;;;;;15.65;71.28;95780.38;5114485;28;20042;-33
2022/12/09 09:42:51;;;;;;;12.45;2.80;;;;;;;15.92;69.46;95775.78;5113019;28;20043;-34
2022/12/09 09:45:21;;;;;;;16.52;2.90;;;;;;;15.90;69.66;95765.31;5114491;28;20026;-34
2022/12/09 09:47:54;;;;;;;13.15;2.85;;;;;;;16.01;69.17;95754.53;5114221;28;20112;-35
2022/12/09 09:50:47;;;;;;;13.32;3.60;;;;;;;15.68;71.48;95765.03;5114308;28;20094;-34
2022/12/09 09:53:39;;;;;;;17.03;3.30;;;;;;;15.85;70.13;95765.25;5112863;28;20044;-35
2022/12/09 09:56:18;;;;;;;13.95;3.50;;;;;;;15.86;70.23;95755.81;5110551;28;20120;-34
2022/12/09 09:58:53;;;;;;;18.20;4.28;;;;;;;15.87;70.42;95771.00;5114369;28;20023;-34
2022/12/09 10:01:24;;;;;;;12.45;2.60;;;;;;;15.90;69.38;95762.59;5114177;28;20102;-34
2022/12/09 10:04:11;;;;;;;8.95;2.90;;;;;;;16.25;68.30;95768.00;5114359;28;20104;-34
2022/12/09 10:06:48;;;;;;;10.73;2.53;;;;;;;16.13;68.63;95745.22;5113992;28;20027;-35
2022/12/09 10:09:36;;;;;;;12.85;3.17;;;;;;;16.14;68.61;95746.72;5113999;28;20034;-34
2022/12/09 10:12:44;;;;;;;10.07;3.28;;;;;;;16.16;68.19;95738.81;5113950;28;20034;-34
2022/12/09 10:15:17;;;;;;;14.57;2.88;;;;;;;16.27;67.66;95743.66;5113803;28;20016;-34
2022/12/09 10:17:54;;;;;;;;;;;;;;;16.43;66.82;95731.41;5114487;28;20455;-34
2022/12/09 10:20:25;;;;;;;12.38;2.75;;;;;;;16.26;67.57;95738.66;5114171;28;19931;-33
2022/12/09 10:23:01;;;;;;;15.27;2.88;;;;;;;16.41;66.83;95736.59;5113804;28;20022;-34
2022/12/09 10:25:30;;;;;;;15.98;2.92;;;;;;;16.45;66.91;95737.13;5112650;28;20024;-34
2022/12/09 10:28:21;;;;;;;12.77;3.30;;;;;;;16.20;67.83;95726.88;5113621;28;20020;-36
2022/12/09 10:30:51;;;;;;;15.38;2.63;;;;;;;16.09;68.37;95705.63;5113925;28;20479;-34
2022/12/09 10:33:21;;;;;;;12.82;2.63;;;;;;;16.19;68.08;95711.72;5113729;28;20088;-35
2022/12/09 10:35:47;;;;;;;16.45;3.45;;;;;;;16.29;67.34;95711.09;5113722;28;20053;-35
2022/12/09 10:38:15;;;;;;;13.45;2.53;;;;;;;16.23;67.86;95702.06;5113696;28;20027;-34
2022/12/09 10:40:44;;;;;;;16.88;3.20;;;;;;;15.99;68.90;95699.56;5113140;28;20015;-35
2022/12/09 10:43:37;;;;;;;11.93;3.22;;;;;;;16.20;68.07;95732.34;5116446;28;20475;-35
2022/12/09 10:46:17;;;;;;;9.67;2.90;;;;;;;16.12;68.29;95704.66;5117990;28;20023;-34
2022/12/09 10:48:51;;;;;;;16.85;3.65;;;;;;;16.38;67.31;95699.25;5118003;28;20282;-35
2022/12/09 10:51:20;;;;;;;16.85;3.13;;;;;;;16.31;67.74;95691.47;5117654;27;20024;-34
2022/12/09 10:53:50;;;;;;;14.43;3.42;;;;;;;16.38;67.27;95689.03;5117724;28;20095;-34
2022/12/09 10:56:25;;;;;;;11.70;3.60;;;;;;;16.46;66.98;95683.88;5116414;28;20419;-36
2022/12/09 10:59:23;;;;;;;16.23;3.58;;;;;;;16.27;67.94;95679.97;5117648;28;20023;-35
2022/12/09 11:02:02;;;;;;;12.00;2.95;;;;;;;16.47;66.99;95656.03;5117355;28;20082;-34
2022/12/09 11:04:31;;;;;;;15.45;3.22;;;;;;;16.42;67.15;95656.00;5117059;28;20019;-34
2022/12/09 11:07:01;;;;;;;11.98;3.67;;;;;;;16.42;67.24;95656.75;5117373;28;20028;-34
2022/12/09 11:09:32;;;;;;;10.30;2.72;;;;;;;16.44;67.08;95653.53;5116298;28;20192;-34
2022/12/09 11:11:58;;;;;;;16.85;3.03;;;;;;;16.46;66.88;95648.31;5117362;27;20098;-34
2022/12/09 11:14:23;;;;;;;13.73;3.38;;;;;;;16.49;66.46;95647.34;5117372;28;20023;-34
2022/12/09 11:16:51;;;;;;;11.63;2.83;;;;;;;16.52;66.56;95654.59;5117080;28;20050;-34
2022/12/09 11:19:26;;;;;;;14.27;3.75;;;;;;;16.28;67.49;95649.41;5117252;28;20023;-34
2022/12/09 11:22:12;;;;;;;16.15;3.55;;;;;;;16.39;67.34;95646.00;5117154;28;20080;-34
2022/12/09 11:24:39;;;;;;;11.15;3.17;;;;;;;16.39;67.18;95637.81;5117006;28;20023;-35
2022/12/09 11:27:30;;;;;;;9.43;3.38;;;;;;;16.51;66.87;95631.19;5116823;28;20110;-35
2022/12/09 11:30:12;;;;;;;12.85;3.45;;;;;;;16.59;66.05;95632.25;5116995;28;20024;-33
2022/12/09 11:33:02;;;;;;;13.70;3.20;;;;;;;16.52;66.47;95641.66;5117122;28;20023;-34
2022/12/09 11:35:57;;;;;;;15.23;3.30;;;;;;;16.56;66.09;95633.25;5117221;28;20080;-33
2022/12/09 11:38:29;;;;;;;9.18;2.60;;;;;;;16.61;65.67;95635.25;5111665;28;20023;-35